sensor_id;sensor_type;location;lat;lon;timestamp;noise_LAeq;noise_LA_min;noise_LA_max;noise_LA01;noise_LA95
46584;Laerm;32309;48.858;8.252;2023-05-07T00:00:43;45.00;42.53;48.49;;
46584;Laerm;32309;48.858;8.252;2023-05-07T00:02:43;44.66;42.82;51.42;;
46584;Laerm;32309;48.858;8.252;2023-05-07T00:04:44;45.31;42.82;49.25;;
46584;Laerm;32309;48.858;8.252;2023-05-07T00:06:45;45.79;43.14;56.33;;
46584;Laerm;32309;48.858;8.252;2023-05-07T00:08:45;44.86;43.14;50.60;;
46584;Laerm;32309;48.858;8.252;2023-05-07T00:10:46;44.78;42.71;51.80;;
46584;Laerm;32309;48.858;8.252;2023-05-07T00:12:49;45.17;42.88;54.76;;
46584;Laerm;32309;48.858;8.252;2023-05-07T00:14:52;44.96;43.04;52.87;;
46584;Laerm;32309;48.858;8.252;2023-05-07T00:16:53;45.66;43.19;52.63;;
46584;Laerm;32309;48.858;8.252;2023-05-07T00:18:53;45.89;43.04;50.95;;
46584;Laerm;32309;48.858;8.252;2023-05-07T00:22:56;45.81;42.47;54.21;;
46584;Laerm;32309;48.858;8.252;2023-05-07T00:24:57;46.46;42.82;56.11;;
46584;Laerm;32309;48.858;8.252;2023-05-07T00:26:57;45.12;42.76;50.30;;
46584;Laerm;32309;48.858;8.252;2023-05-07T00:28:58;44.94;41.82;52.70;;
46584;Laerm;32309;48.858;8.252;2023-05-07T00:33:01;45.04;41.38;50.12;;
46584;Laerm;32309;48.858;8.252;2023-05-07T00:35:03;45.31;42.03;58.93;;
46584;Laerm;32309;48.858;8.252;2023-05-07T00:37:06;44.81;42.03;52.34;;
46584;Laerm;32309;48.858;8.252;2023-05-07T00:39:09;45.03;42.65;51.61;;
46584;Laerm;32309;48.858;8.252;2023-05-07T00:41:10;45.97;42.22;52.53;;
46584;Laerm;32309;48.858;8.252;2023-05-07T00:43:10;43.81;41.06;48.90;;
46584;Laerm;32309;48.858;8.252;2023-05-07T00:45:13;44.65;42.03;52.67;;
46584;Laerm;32309;48.858;8.252;2023-05-07T00:47:14;60.54;42.53;95.88;;
46584;Laerm;32309;48.858;8.252;2023-05-07T00:49:14;45.35;42.76;50.79;;
46584;Laerm;32309;48.858;8.252;2023-05-07T00:51:15;45.73;43.54;50.27;;
46584;Laerm;32309;48.858;8.252;2023-05-07T00:53:15;44.83;43.24;48.58;;
46584;Laerm;32309;48.858;8.252;2023-05-07T00:57:16;44.02;41.96;49.07;;
46584;Laerm;32309;48.858;8.252;2023-05-07T00:59:17;43.77;41.82;50.31;;
46584;Laerm;32309;48.858;8.252;2023-05-07T01:01:17;61.89;42.03;97.16;;
46584;Laerm;32309;48.858;8.252;2023-05-07T01:03:17;47.31;44.80;54.61;;
46584;Laerm;32309;48.858;8.252;2023-05-07T01:07:19;48.73;45.72;60.75;;
46584;Laerm;32309;48.858;8.252;2023-05-07T01:09:29;51.36;48.96;64.04;;
46584;Laerm;32309;48.858;8.252;2023-05-07T01:11:31;51.56;49.87;56.21;;
46584;Laerm;32309;48.858;8.252;2023-05-07T01:13:37;61.87;49.34;79.14;;
46584;Laerm;32309;48.858;8.252;2023-05-07T01:15:44;60.58;50.88;75.29;;
46584;Laerm;32309;48.858;8.252;2023-05-07T01:17:46;60.25;51.25;75.58;;
46584;Laerm;32309;48.858;8.252;2023-05-07T01:19:52;60.41;50.86;76.57;;
46584;Laerm;32309;48.858;8.252;2023-05-07T01:22:03;58.91;51.15;69.38;;
46584;Laerm;32309;48.858;8.252;2023-05-07T01:24:14;58.10;50.63;70.61;;
46584;Laerm;32309;48.858;8.252;2023-05-07T01:26:20;58.04;50.76;69.66;;
46584;Laerm;32309;48.858;8.252;2023-05-07T01:28:23;59.04;51.26;72.85;;
46584;Laerm;32309;48.858;8.252;2023-05-07T01:30:23;61.69;51.06;79.80;;
46584;Laerm;32309;48.858;8.252;2023-05-07T01:34:49;56.76;50.77;68.05;;
46584;Laerm;32309;48.858;8.252;2023-05-07T01:37:03;60.89;51.03;76.89;;
46584;Laerm;32309;48.858;8.252;2023-05-07T01:39:04;56.87;51.03;69.71;;
46584;Laerm;32309;48.858;8.252;2023-05-07T01:41:23;55.82;51.19;70.46;;
46584;Laerm;32309;48.858;8.252;2023-05-07T01:43:26;56.57;51.52;70.87;;
46584;Laerm;32309;48.858;8.252;2023-05-07T01:45:27;56.67;50.96;69.69;;
46584;Laerm;32309;48.858;8.252;2023-05-07T01:47:29;56.42;51.32;73.87;;
46584;Laerm;32309;48.858;8.252;2023-05-07T01:51:33;56.83;51.59;69.50;;
46584;Laerm;32309;48.858;8.252;2023-05-07T01:53:38;56.21;51.07;70.89;;
46584;Laerm;32309;48.858;8.252;2023-05-07T01:57:42;56.72;51.16;66.72;;
46584;Laerm;32309;48.858;8.252;2023-05-07T02:01:43;57.65;51.11;67.56;;
46584;Laerm;32309;48.858;8.252;2023-05-07T02:03:51;55.37;50.90;72.45;;
46584;Laerm;32309;48.858;8.252;2023-05-07T02:05:52;54.35;50.71;64.06;;
46584;Laerm;32309;48.858;8.252;2023-05-07T02:07:52;55.98;51.22;70.22;;
46584;Laerm;32309;48.858;8.252;2023-05-07T02:09:52;55.98;51.22;70.22;;
46584;Laerm;32309;48.858;8.252;2023-05-07T02:11:55;60.33;51.02;72.22;;
46584;Laerm;32309;48.858;8.252;2023-05-07T02:13:55;56.00;51.16;67.65;;
46584;Laerm;32309;48.858;8.252;2023-05-07T02:15:59;56.00;51.16;67.65;;
46584;Laerm;32309;48.858;8.252;2023-05-07T02:18:07;56.17;51.40;65.92;;
46584;Laerm;32309;48.858;8.252;2023-05-07T02:20:08;55.93;51.19;66.57;;
46584;Laerm;32309;48.858;8.252;2023-05-07T02:22:13;57.72;50.78;67.78;;
46584;Laerm;32309;48.858;8.252;2023-05-07T02:24:16;56.01;51.42;66.87;;
46584;Laerm;32309;48.858;8.252;2023-05-07T02:26:16;57.07;50.76;68.75;;
46584;Laerm;32309;48.858;8.252;2023-05-07T02:28:19;54.69;50.55;69.37;;
46584;Laerm;32309;48.858;8.252;2023-05-07T02:30:25;56.35;51.17;67.45;;
46584;Laerm;32309;48.858;8.252;2023-05-07T02:32:25;54.79;50.85;64.11;;
46584;Laerm;32309;48.858;8.252;2023-05-07T02:34:26;57.08;50.90;67.97;;
46584;Laerm;32309;48.858;8.252;2023-05-07T02:36:26;54.51;50.85;62.61;;
46584;Laerm;32309;48.858;8.252;2023-05-07T02:38:27;56.32;51.79;64.98;;
46584;Laerm;32309;48.858;8.252;2023-05-07T02:40:30;55.37;50.92;69.01;;
46584;Laerm;32309;48.858;8.252;2023-05-07T02:42:33;57.94;51.20;67.04;;
46584;Laerm;32309;48.858;8.252;2023-05-07T02:44:34;56.79;52.55;63.74;;
46584;Laerm;32309;48.858;8.252;2023-05-07T02:46:38;54.99;51.12;62.40;;
46584;Laerm;32309;48.858;8.252;2023-05-07T02:48:38;59.36;50.62;69.58;;
46584;Laerm;32309;48.858;8.252;2023-05-07T02:50:39;60.73;50.67;71.03;;
46584;Laerm;32309;48.858;8.252;2023-05-07T02:54:39;55.72;51.28;69.58;;
46584;Laerm;32309;48.858;8.252;2023-05-07T02:56:45;55.90;51.26;71.55;;
46584;Laerm;32309;48.858;8.252;2023-05-07T03:00:46;56.83;51.68;66.94;;
46584;Laerm;32309;48.858;8.252;2023-05-07T03:02:46;56.83;51.68;66.94;;
46584;Laerm;32309;48.858;8.252;2023-05-07T03:08:50;56.33;51.22;66.57;;
46584;Laerm;32309;48.858;8.252;2023-05-07T03:10:55;57.85;50.67;69.87;;
46584;Laerm;32309;48.858;8.252;2023-05-07T03:12:55;56.05;51.22;74.20;;
46584;Laerm;32309;48.858;8.252;2023-05-07T03:14:56;56.39;50.78;67.02;;
46584;Laerm;32309;48.858;8.252;2023-05-07T03:16:56;58.75;51.47;70.35;;
46584;Laerm;32309;48.858;8.252;2023-05-07T03:18:56;56.61;51.12;68.03;;
46584;Laerm;32309;48.858;8.252;2023-05-07T03:20:57;56.30;50.89;68.35;;
46584;Laerm;32309;48.858;8.252;2023-05-07T03:22:57;59.06;50.77;70.18;;
46584;Laerm;32309;48.858;8.252;2023-05-07T03:24:58;57.54;51.19;71.71;;
46584;Laerm;32309;48.858;8.252;2023-05-07T03:26:58;57.62;51.25;68.30;;
46584;Laerm;32309;48.858;8.252;2023-05-07T03:29:08;60.30;51.43;69.46;;
46584;Laerm;32309;48.858;8.252;2023-05-07T03:31:08;58.81;52.12;71.99;;
46584;Laerm;32309;48.858;8.252;2023-05-07T03:33:08;57.89;51.03;71.27;;
46584;Laerm;32309;48.858;8.252;2023-05-07T03:37:11;55.63;51.33;70.06;;
46584;Laerm;32309;48.858;8.252;2023-05-07T03:39:12;55.89;51.54;64.39;;
46584;Laerm;32309;48.858;8.252;2023-05-07T03:41:12;57.41;51.87;67.38;;
46584;Laerm;32309;48.858;8.252;2023-05-07T03:43:13;58.39;52.01;70.09;;
46584;Laerm;32309;48.858;8.252;2023-05-07T03:45:13;56.64;51.56;67.00;;
46584;Laerm;32309;48.858;8.252;2023-05-07T03:47:16;57.57;51.14;67.72;;
46584;Laerm;32309;48.858;8.252;2023-05-07T03:56:11;58.94;52.53;68.24;;
46584;Laerm;32309;48.858;8.252;2023-05-07T03:58:26;58.29;51.49;70.85;;
46584;Laerm;32309;48.858;8.252;2023-05-07T04:00:30;58.29;51.63;71.33;;
46584;Laerm;32309;48.858;8.252;2023-05-07T04:02:42;57.36;51.56;68.34;;
46584;Laerm;32309;48.858;8.252;2023-05-07T04:05:02;56.22;51.23;68.47;;
46584;Laerm;32309;48.858;8.252;2023-05-07T04:07:30;59.49;51.19;71.44;;
46584;Laerm;32309;48.858;8.252;2023-05-07T04:12:18;58.32;52.01;68.55;;
46584;Laerm;32309;48.858;8.252;2023-05-07T04:17:01;58.79;52.13;71.68;;
46584;Laerm;32309;48.858;8.252;2023-05-07T04:19:45;60.01;51.82;69.95;;
46584;Laerm;32309;48.858;8.252;2023-05-07T04:21:57;59.54;52.29;69.51;;
46584;Laerm;32309;48.858;8.252;2023-05-07T04:24:07;60.72;52.96;70.48;;
46584;Laerm;32309;48.858;8.252;2023-05-07T04:34:14;59.38;52.13;74.24;;
46584;Laerm;32309;48.858;8.252;2023-05-07T04:36:20;58.92;51.60;69.94;;
46584;Laerm;32309;48.858;8.252;2023-05-07T04:38:44;59.04;51.91;68.67;;
46584;Laerm;32309;48.858;8.252;2023-05-07T04:41:12;57.88;51.33;67.12;;
46584;Laerm;32309;48.858;8.252;2023-05-07T04:43:17;57.36;52.06;70.45;;
46584;Laerm;32309;48.858;8.252;2023-05-07T04:45:27;60.52;52.45;72.42;;
46584;Laerm;32309;48.858;8.252;2023-05-07T04:52:45;59.84;52.92;70.41;;
46584;Laerm;32309;48.858;8.252;2023-05-07T04:55:10;60.36;53.02;68.82;;
46584;Laerm;32309;48.858;8.252;2023-05-07T04:57:36;59.33;52.46;70.46;;
46584;Laerm;32309;48.858;8.252;2023-05-07T05:00:09;58.52;51.52;72.52;;
46584;Laerm;32309;48.858;8.252;2023-05-07T05:02:34;59.93;52.67;70.92;;
46584;Laerm;32309;48.858;8.252;2023-05-07T05:05:03;60.36;52.49;70.25;;
46584;Laerm;32309;48.858;8.252;2023-05-07T05:10:15;59.41;52.83;71.03;;
46584;Laerm;32309;48.858;8.252;2023-05-07T05:18:29;61.54;53.32;74.29;;
46584;Laerm;32309;48.858;8.252;2023-05-07T05:32:51;65.13;55.00;74.87;;
46584;Laerm;32309;48.858;8.252;2023-05-07T05:35:10;65.25;55.34;79.07;;
46584;Laerm;32309;48.858;8.252;2023-05-07T05:40:49;64.91;53.10;76.55;;
46584;Laerm;32309;48.858;8.252;2023-05-07T05:45:02;65.45;55.42;76.85;;
46584;Laerm;32309;48.858;8.252;2023-05-07T05:47:40;65.28;56.44;75.06;;
46584;Laerm;32309;48.858;8.252;2023-05-07T05:49:59;67.23;53.76;82.44;;
46584;Laerm;32309;48.858;8.252;2023-05-07T06:00:59;64.27;52.35;82.56;;
46584;Laerm;32309;48.858;8.252;2023-05-07T07:12:23;64.71;54.16;75.19;;
46584;Laerm;32309;48.858;8.252;2023-05-07T07:14:36;64.24;53.42;75.78;;
46584;Laerm;32309;48.858;8.252;2023-05-07T07:17:10;64.32;51.68;74.11;;
46584;Laerm;32309;48.858;8.252;2023-05-07T07:38:44;69.03;56.03;86.56;;
46584;Laerm;32309;48.858;8.252;2023-05-07T07:41:01;69.86;61.97;85.37;;
46584;Laerm;32309;48.858;8.252;2023-05-07T07:43:11;73.47;63.16;80.68;;
46584;Laerm;32309;48.858;8.252;2023-05-07T07:47:12;67.33;51.85;81.51;;
46584;Laerm;32309;48.858;8.252;2023-05-07T08:47:13;77.14;61.95;82.29;;
46584;Laerm;32309;48.858;8.252;2023-05-07T08:52:19;74.76;53.95;81.49;;
46584;Laerm;32309;48.858;8.252;2023-05-07T08:54:20;76.94;53.13;82.41;;
46584;Laerm;32309;48.858;8.252;2023-05-07T08:56:21;80.70;54.65;85.99;;
46584;Laerm;32309;48.858;8.252;2023-05-07T09:02:27;73.34;55.12;81.21;;
46584;Laerm;32309;48.858;8.252;2023-05-07T09:04:36;66.43;52.74;75.01;;
46584;Laerm;32309;48.858;8.252;2023-05-07T09:06:36;65.48;56.30;76.63;;
46584;Laerm;32309;48.858;8.252;2023-05-07T09:08:41;71.09;57.63;82.45;;
46584;Laerm;32309;48.858;8.252;2023-05-07T09:10:44;74.45;61.13;79.63;;
46584;Laerm;32309;48.858;8.252;2023-05-07T09:12:53;73.98;61.09;79.49;;
46584;Laerm;32309;48.858;8.252;2023-05-07T09:15:11;70.39;50.91;86.21;;
46584;Laerm;32309;48.858;8.252;2023-05-07T09:17:21;67.16;52.06;82.71;;
46584;Laerm;32309;48.858;8.252;2023-05-07T09:19:26;62.91;50.90;76.35;;
46584;Laerm;32309;48.858;8.252;2023-05-07T09:21:29;69.82;53.93;83.31;;
46584;Laerm;32309;48.858;8.252;2023-05-07T09:23:37;70.55;55.38;83.52;;
46584;Laerm;32309;48.858;8.252;2023-05-07T09:25:38;68.73;54.77;80.76;;
46584;Laerm;32309;48.858;8.252;2023-05-07T09:27:42;69.72;53.25;81.05;;
46584;Laerm;32309;48.858;8.252;2023-05-07T09:38:09;68.91;57.82;80.92;;
46584;Laerm;32309;48.858;8.252;2023-05-07T09:42:31;73.18;54.62;81.16;;
46584;Laerm;32309;48.858;8.252;2023-05-07T09:44:32;77.10;56.84;83.70;;
46584;Laerm;32309;48.858;8.252;2023-05-07T09:46:56;74.53;58.22;82.31;;
46584;Laerm;32309;48.858;8.252;2023-05-07T09:51:55;76.67;55.99;85.90;;
46584;Laerm;32309;48.858;8.252;2023-05-07T09:59:56;70.71;52.26;88.75;;
46584;Laerm;32309;48.858;8.252;2023-05-07T10:04:12;64.86;54.09;83.03;;
46584;Laerm;32309;48.858;8.252;2023-05-07T10:09:33;62.36;52.62;78.52;;
46584;Laerm;32309;48.858;8.252;2023-05-07T10:15:00;67.94;50.64;80.09;;
46584;Laerm;32309;48.858;8.252;2023-05-07T10:24:39;73.69;56.25;80.69;;
46584;Laerm;32309;48.858;8.252;2023-05-07T10:26:45;68.93;56.57;76.68;;
46584;Laerm;32309;48.858;8.252;2023-05-07T10:34:48;68.44;52.30;79.02;;
46584;Laerm;32309;48.858;8.252;2023-05-07T10:37:03;58.88;51.87;77.79;;
46584;Laerm;32309;48.858;8.252;2023-05-07T10:39:13;63.36;53.01;77.26;;
46584;Laerm;32309;48.858;8.252;2023-05-07T11:09:06;64.70;54.05;76.77;;
46584;Laerm;32309;48.858;8.252;2023-05-07T11:11:20;66.58;57.49;77.74;;
46584;Laerm;32309;48.858;8.252;2023-05-07T11:13:45;67.83;57.94;81.66;;
46584;Laerm;32309;48.858;8.252;2023-05-07T11:40:07;64.46;52.33;79.19;;
46584;Laerm;32309;48.858;8.252;2023-05-07T11:48:25;63.49;55.27;74.08;;
46584;Laerm;32309;48.858;8.252;2023-05-07T11:52:51;65.48;53.94;81.50;;
46584;Laerm;32309;48.858;8.252;2023-05-07T12:34:14;57.20;51.67;72.35;;
46584;Laerm;32309;48.858;8.252;2023-05-07T12:36:17;60.34;50.51;74.83;;
46584;Laerm;32309;48.858;8.252;2023-05-07T12:38:23;57.61;51.81;71.95;;
46584;Laerm;32309;48.858;8.252;2023-05-07T12:40:39;64.61;53.38;74.31;;
46584;Laerm;32309;48.858;8.252;2023-05-07T12:42:53;63.84;51.53;69.86;;
46584;Laerm;32309;48.858;8.252;2023-05-07T12:48:14;59.68;50.68;74.35;;
46584;Laerm;32309;48.858;8.252;2023-05-07T12:59:02;63.23;52.73;71.11;;
46584;Laerm;32309;48.858;8.252;2023-05-07T13:01:07;65.71;52.88;77.62;;
46584;Laerm;32309;48.858;8.252;2023-05-07T13:03:10;62.44;54.82;73.81;;
46584;Laerm;32309;48.858;8.252;2023-05-07T13:05:32;61.30;53.41;73.15;;
46584;Laerm;32309;48.858;8.252;2023-05-07T13:11:04;61.80;52.00;72.41;;
46584;Laerm;32309;48.858;8.252;2023-05-07T13:49:24;63.66;53.43;77.11;;
46584;Laerm;32309;48.858;8.252;2023-05-07T13:57:38;62.43;52.66;78.28;;
46584;Laerm;32309;48.858;8.252;2023-05-07T14:09:06;71.75;51.33;87.67;;
46584;Laerm;32309;48.858;8.252;2023-05-07T14:14:09;81.01;55.56;89.72;;
46584;Laerm;32309;48.858;8.252;2023-05-07T14:16:41;67.92;54.72;80.25;;
46584;Laerm;32309;48.858;8.252;2023-05-07T14:19:09;67.34;52.76;78.88;;
46584;Laerm;32309;48.858;8.252;2023-05-07T14:28:52;67.01;53.68;75.80;;
46584;Laerm;32309;48.858;8.252;2023-05-07T14:35:21;70.68;59.31;80.26;;
46584;Laerm;32309;48.858;8.252;2023-05-07T14:48:04;77.93;68.75;82.62;;
46584;Laerm;32309;48.858;8.252;2023-05-07T14:53:21;75.04;58.11;82.22;;
46584;Laerm;32309;48.858;8.252;2023-05-07T14:55:28;67.51;57.27;75.17;;
46584;Laerm;32309;48.858;8.252;2023-05-07T14:57:28;63.00;56.58;75.37;;
46584;Laerm;32309;48.858;8.252;2023-05-07T14:59:51;67.09;62.68;74.57;;
46584;Laerm;32309;48.858;8.252;2023-05-07T15:02:06;65.56;59.12;74.86;;
46584;Laerm;32309;48.858;8.252;2023-05-07T15:06:51;67.47;60.04;78.54;;
46584;Laerm;32309;48.858;8.252;2023-05-07T16:40:17;64.76;54.53;77.28;;
46584;Laerm;32309;48.858;8.252;2023-05-07T16:42:56;63.48;53.83;72.58;;
46584;Laerm;32309;48.858;8.252;2023-05-07T16:45:19;64.72;56.66;74.23;;
46584;Laerm;32309;48.858;8.252;2023-05-07T16:47:52;62.39;52.25;71.20;;
46584;Laerm;32309;48.858;8.252;2023-05-07T16:49:55;66.53;54.29;81.92;;
46584;Laerm;32309;48.858;8.252;2023-05-07T16:52:05;61.57;53.02;75.44;;
46584;Laerm;32309;48.858;8.252;2023-05-07T16:57:09;66.42;53.24;84.31;;
46584;Laerm;32309;48.858;8.252;2023-05-07T16:59:28;65.14;52.27;77.62;;
46584;Laerm;32309;48.858;8.252;2023-05-07T17:01:51;57.48;51.80;79.19;;
46584;Laerm;32309;48.858;8.252;2023-05-07T17:03:56;60.20;51.35;79.97;;
46584;Laerm;32309;48.858;8.252;2023-05-07T17:05:56;62.38;54.15;79.26;;
46584;Laerm;32309;48.858;8.252;2023-05-07T17:07:59;65.01;55.48;75.81;;
46584;Laerm;32309;48.858;8.252;2023-05-07T17:10:03;66.88;54.51;79.18;;
46584;Laerm;32309;48.858;8.252;2023-05-07T17:14:07;62.19;55.18;77.54;;
46584;Laerm;32309;48.858;8.252;2023-05-07T17:16:08;59.62;52.48;65.39;;
46584;Laerm;32309;48.858;8.252;2023-05-07T17:18:08;60.43;54.06;63.94;;
46584;Laerm;32309;48.858;8.252;2023-05-07T17:20:11;58.78;52.85;75.68;;
46584;Laerm;32309;48.858;8.252;2023-05-07T17:22:14;59.86;52.81;75.92;;
46584;Laerm;32309;48.858;8.252;2023-05-07T17:24:14;68.75;53.37;72.50;;
46584;Laerm;32309;48.858;8.252;2023-05-07T17:28:16;68.68;52.64;75.57;;
46584;Laerm;32309;48.858;8.252;2023-05-07T17:30:16;67.71;54.10;71.89;;
46584;Laerm;32309;48.858;8.252;2023-05-07T17:32:16;67.71;61.64;74.77;;
46584;Laerm;32309;48.858;8.252;2023-05-07T17:34:19;70.14;57.83;75.66;;
46584;Laerm;32309;48.858;8.252;2023-05-07T17:36:30;67.62;52.59;78.76;;
46584;Laerm;32309;48.858;8.252;2023-05-07T17:38:30;68.38;58.01;74.72;;
46584;Laerm;32309;48.858;8.252;2023-05-07T17:40:31;67.57;52.17;77.54;;
46584;Laerm;32309;48.858;8.252;2023-05-07T17:44:37;65.12;53.23;81.70;;
46584;Laerm;32309;48.858;8.252;2023-05-07T17:46:38;64.22;50.59;78.61;;
46584;Laerm;32309;48.858;8.252;2023-05-07T17:48:40;62.44;51.26;72.72;;
46584;Laerm;32309;48.858;8.252;2023-05-07T17:50:41;64.84;51.77;75.11;;
46584;Laerm;32309;48.858;8.252;2023-05-07T17:52:41;66.01;51.75;80.67;;
46584;Laerm;32309;48.858;8.252;2023-05-07T17:54:42;66.06;53.01;76.47;;
46584;Laerm;32309;48.858;8.252;2023-05-07T17:56:42;66.54;53.76;72.96;;
46584;Laerm;32309;48.858;8.252;2023-05-07T17:58:42;66.49;55.09;73.64;;
46584;Laerm;32309;48.858;8.252;2023-05-07T18:00:43;61.11;53.88;72.23;;
46584;Laerm;32309;48.858;8.252;2023-05-07T18:02:43;59.33;51.79;71.73;;
46584;Laerm;32309;48.858;8.252;2023-05-07T18:07:40;74.94;51.45;83.75;;
46584;Laerm;32309;48.858;8.252;2023-05-07T18:09:40;77.96;72.12;82.96;;
46584;Laerm;32309;48.858;8.252;2023-05-07T18:11:40;80.06;71.97;85.64;;
46584;Laerm;32309;48.858;8.252;2023-05-07T18:13:43;81.79;74.25;86.03;;
46584;Laerm;32309;48.858;8.252;2023-05-07T18:15:44;83.43;75.78;87.91;;
46584;Laerm;32309;48.858;8.252;2023-05-07T18:17:57;81.20;73.79;85.41;;
46584;Laerm;32309;48.858;8.252;2023-05-07T18:20:00;80.18;62.08;85.48;;
46584;Laerm;32309;48.858;8.252;2023-05-07T18:22:10;80.66;70.75;84.50;;
46584;Laerm;32309;48.858;8.252;2023-05-07T18:24:13;80.25;68.14;84.74;;
46584;Laerm;32309;48.858;8.252;2023-05-07T18:26:14;80.50;68.27;85.17;;
46584;Laerm;32309;48.858;8.252;2023-05-07T18:33:09;59.87;50.64;75.86;;
46584;Laerm;32309;48.858;8.252;2023-05-07T19:00:48;59.30;51.29;71.37;;
46584;Laerm;32309;48.858;8.252;2023-05-07T19:03:10;62.01;52.13;73.30;;
46584;Laerm;32309;48.858;8.252;2023-05-07T19:05:10;60.27;52.88;70.16;;
46584;Laerm;32309;48.858;8.252;2023-05-07T19:07:12;61.84;52.92;77.58;;
46584;Laerm;32309;48.858;8.252;2023-05-07T19:09:14;61.94;52.21;67.05;;
46584;Laerm;32309;48.858;8.252;2023-05-07T19:11:15;63.01;55.03;67.74;;
46584;Laerm;32309;48.858;8.252;2023-05-07T19:13:18;63.29;51.85;68.87;;
46584;Laerm;32309;48.858;8.252;2023-05-07T19:17:34;63.59;53.98;74.82;;
46584;Laerm;32309;48.858;8.252;2023-05-07T19:19:35;65.39;53.45;76.68;;
46584;Laerm;32309;48.858;8.252;2023-05-07T19:21:41;60.35;51.31;77.66;;
46584;Laerm;32309;48.858;8.252;2023-05-07T19:23:41;60.63;52.18;73.83;;
46584;Laerm;32309;48.858;8.252;2023-05-07T19:27:43;71.98;56.54;80.90;;
46584;Laerm;32309;48.858;8.252;2023-05-07T19:29:52;65.36;56.73;76.24;;
46584;Laerm;32309;48.858;8.252;2023-05-07T19:32:26;67.35;53.17;81.99;;
46584;Laerm;32309;48.858;8.252;2023-05-07T19:34:43;60.26;53.62;74.61;;
46584;Laerm;32309;48.858;8.252;2023-05-07T19:36:43;63.45;54.87;73.67;;
46584;Laerm;32309;48.858;8.252;2023-05-07T19:40:56;64.26;52.05;78.01;;
46584;Laerm;32309;48.858;8.252;2023-05-07T19:43:12;62.52;56.42;75.75;;
46584;Laerm;32309;48.858;8.252;2023-05-07T19:45:51;63.75;54.62;77.06;;
46584;Laerm;32309;48.858;8.252;2023-05-07T20:01:41;60.70;50.62;73.17;;
46584;Laerm;32309;48.858;8.252;2023-05-07T20:06:36;60.16;51.53;69.73;;
46584;Laerm;32309;48.858;8.252;2023-05-07T20:09:17;59.85;50.64;71.83;;
